Time;durP1;ratioP1;P1;durP2;ratioP2;P2;SDS_P1;SDS_P2;PMS_P1;PMS_P2;Temp;Humidity;BMP_temperature;BMP_pressure;BME280_temperature;BME280_humidity;BME280_pressure;Samples;Min_cycle;Max_cycle;Signal;HPM_P1;HPM_P2
2021/12/14 00:03:40;;;;;;;173.00;76.60;;;;;;;0.62;83.32;100944.30;230832;1192;138975;-67
2021/12/14 00:08:55;;;;;;;176.30;65.30;;;;;;;0.67;83.18;100944.19;230712;1186;139751;-70
2021/12/14 00:19:38;;;;;;;165.80;75.10;;;;;;;0.73;83.14;100929.49;228039;1193;232693;-66
2021/12/14 00:24:44;;;;;;;177.70;71.10;;;;;;;0.71;83.10;100933.11;229586;1192;143293;-64
2021/12/14 00:29:52;;;;;;;162.90;62.80;;;;;;;0.69;83.07;100934.55;228377;1193;140275;-65
2021/12/14 00:34:59;;;;;;;171.80;75.70;;;;;;;0.72;83.08;100926.23;228800;1192;139967;-66
2021/12/14 00:40:28;;;;;;;180.90;77.40;;;;;;;0.69;83.28;100927.86;228804;1193;139156;-68
2021/12/14 00:45:35;;;;;;;180.30;76.60;;;;;;;0.70;83.30;100925.71;229205;1192;141308;-70
2021/12/14 00:50:43;;;;;;;;;;;;;;;0.68;83.74;100924.08;229414;1192;139296;-69
2021/12/14 00:55:49;;;;;;;172.40;69.60;;;;;;;0.69;83.39;100925.41;229435;1193;125976;-67
2021/12/14 01:00:58;;;;;;;162.70;72.50;;;;;;;0.70;83.48;100926.73;228512;1192;140096;-69
2021/12/14 01:06:10;;;;;;;166.00;71.70;;;;;;;0.67;83.43;100929.44;228668;1192;140035;-68
2021/12/14 01:11:33;;;;;;;181.80;66.70;;;;;;;0.64;83.40;100930.05;228900;1193;138959;-68
2021/12/14 01:27:58;;;;;;;172.10;74.80;;;;;;;0.69;83.61;100920.91;230149;1192;138551;-75
2021/12/14 01:33:18;;;;;;;168.00;66.70;;;;;;;0.72;83.48;100923.58;228865;1193;138982;-73
2021/12/14 01:38:44;;;;;;;160.30;71.40;;;;;;;0.74;83.31;100928.27;229607;1192;140503;-70
2021/12/14 01:43:55;;;;;;;167.50;73.50;;;;;;;0.78;83.58;100932.80;228902;1193;139609;-70
2021/12/14 01:49:05;;;;;;;160.50;60.30;;;;;;;0.82;83.81;100933.34;230004;1192;140248;-70
2021/12/14 01:54:11;;;;;;;153.50;65.40;;;;;;;0.89;83.57;100941.39;229669;1192;140212;-69
2021/12/14 01:59:25;;;;;;;146.90;65.10;;;;;;;0.96;83.70;100941.30;229580;1193;141448;-69
2021/12/14 02:04:28;;;;;;;156.50;74.90;;;;;;;0.92;83.36;100937.94;230788;1192;138766;-73
2021/12/14 02:09:35;;;;;;;142.90;69.50;;;;;;;0.84;83.53;100932.59;230612;1192;139963;-69
2021/12/14 02:14:39;;;;;;;159.40;64.30;;;;;;;0.81;83.27;100931.16;230874;1192;139342;-72
2021/12/14 02:19:43;;;;;;;163.20;69.30;;;;;;;0.87;83.20;100930.02;230594;1193;140505;-73
2021/12/14 02:24:49;;;;;;;164.00;76.20;;;;;;;0.92;83.03;100923.44;230024;1178;139435;-73
2021/12/14 02:29:52;;;;;;;171.60;78.50;;;;;;;0.94;83.76;100920.66;230708;1192;141100;-72
2021/12/14 02:35:04;;;;;;;192.00;68.10;;;;;;;0.96;83.34;100911.17;229755;1193;140151;-70
2021/12/14 02:40:19;;;;;;;173.70;77.70;;;;;;;1.03;83.64;100907.20;229486;1193;140766;-70
2021/12/14 02:45:36;;;;;;;160.80;73.20;;;;;;;1.08;83.33;100907.27;229560;1192;139107;-69
2021/12/14 02:50:39;;;;;;;156.10;75.00;;;;;;;1.05;83.03;100910.38;229568;1192;139267;-69
2021/12/14 02:55:42;;;;;;;161.80;61.90;;;;;;;0.99;83.07;100915.65;228955;1192;140634;-69
2021/12/14 03:00:52;;;;;;;173.70;74.30;;;;;;;1.02;83.55;100912.51;229267;1192;143094;-68
2021/12/14 03:05:59;;;;;;;168.90;75.00;;;;;;;1.03;83.31;100904.44;229134;1192;140877;-67
2021/12/14 03:11:10;;;;;;;169.80;73.10;;;;;;;1.01;83.36;100903.50;229092;1193;141956;-68
2021/12/14 03:16:32;;;;;;;154.40;62.50;;;;;;;0.93;83.74;100894.24;228519;1193;142103;-67
2021/12/14 03:21:41;;;;;;;157.20;60.30;;;;;;;0.97;83.77;100893.56;228569;1193;140300;-67
2021/12/14 03:26:50;;;;;;;163.70;75.00;;;;;;;0.99;83.62;100893.53;229201;1192;140599;-69
2021/12/14 03:31:57;;;;;;;161.60;77.30;;;;;;;1.03;83.82;100901.42;228770;1192;139648;-68
2021/12/14 03:37:16;;;;;;;158.70;69.60;;;;;;;0.99;83.38;100902.13;228357;1193;140921;-68
2021/12/14 03:42:23;;;;;;;155.20;58.90;;;;;;;0.90;83.57;100904.91;229919;1192;139892;-69
2021/12/14 03:47:30;;;;;;;165.40;77.00;;;;;;;0.92;83.52;100899.80;229027;1193;141783;-68
2021/12/14 03:52:46;;;;;;;169.50;70.20;;;;;;;0.94;83.62;100897.84;229534;1193;140539;-70
2021/12/14 03:57:52;;;;;;;149.20;67.50;;;;;;;0.89;83.63;100889.60;229603;1193;141230;-69
2021/12/14 04:02:59;;;;;;;162.60;65.60;;;;;;;0.82;83.41;100887.51;229502;1193;140900;-70
2021/12/14 04:08:03;;;;;;;170.40;60.70;;;;;;;0.78;83.73;100892.93;230740;1192;140282;-72
2021/12/14 04:13:07;;;;;;;156.40;68.70;;;;;;;0.88;83.75;100894.29;230840;1192;142495;-73
2021/12/14 04:18:11;;;;;;;160.60;73.20;;;;;;;0.98;83.84;100891.71;230750;1193;140858;-71
2021/12/14 04:23:22;;;;;;;162.00;71.80;;;;;;;1.01;83.80;100896.70;230676;1193;139513;-71
2021/12/14 04:28:36;;;;;;;167.40;62.60;;;;;;;1.03;83.62;100893.91;230747;1192;140004;-71
2021/12/14 04:33:43;;;;;;;163.90;69.10;;;;;;;1.14;83.73;100893.89;229990;1192;140572;-69
2021/12/14 04:38:55;;;;;;;169.70;69.60;;;;;;;1.17;83.43;100898.36;229908;1192;139766;-70
2021/12/14 04:54:54;;;;;;;174.60;74.50;;;;;;;1.07;83.34;100881.09;229778;1192;149820;-66
2021/12/14 05:00:13;;;;;;;156.10;64.90;;;;;;;1.09;83.48;100884.77;228880;1192;221953;-67
2021/12/14 05:05:24;;;;;;;155.40;70.40;;;;;;;1.04;83.54;100886.08;229139;1193;139618;-67
2021/12/14 05:10:32;;;;;;;158.50;69.70;;;;;;;0.92;83.33;100888.59;229312;1193;232382;-67
2021/12/14 05:15:41;;;;;;;173.40;63.90;;;;;;;0.90;83.84;100887.02;228971;1193;139438;-69
2021/12/14 05:20:52;;;;;;;171.00;73.00;;;;;;;0.96;83.80;100883.37;229012;1192;142083;-68
2021/12/14 05:26:06;;;;;;;164.30;72.90;;;;;;;1.02;83.98;100884.91;229495;1192;139980;-70
2021/12/14 05:31:18;;;;;;;155.30;69.50;;;;;;;1.06;84.08;100883.98;228436;1193;140309;-69
2021/12/14 05:36:24;;;;;;;172.70;62.40;;;;;;;1.07;83.89;100875.19;229352;1192;139803;-72
2021/12/14 05:47:10;;;;;;;151.90;66.90;;;;;;;1.16;84.24;100860.96;229665;1193;139013;-71
2021/12/14 05:52:27;;;;;;;155.00;65.70;;;;;;;1.15;84.12;100859.30;229432;1192;139597;-69
2021/12/14 05:57:39;;;;;;;148.60;63.70;;;;;;;1.22;83.87;100849.73;229721;1192;139200;-70
2021/12/14 06:02:43;;;;;;;148.10;66.50;;;;;;;1.29;84.31;100853.08;230571;1193;140883;-72
2021/12/14 06:07:47;;;;;;;159.50;68.70;;;;;;;1.30;84.30;100856.58;230539;1192;139722;-70
2021/12/14 06:12:51;;;;;;;137.20;56.20;;;;;;;1.30;84.21;100865.02;230769;1192;140681;-67
2021/12/14 06:17:54;;;;;;;144.00;56.90;;;;;;;1.34;83.87;100864.95;230980;1192;139477;-67
2021/12/14 06:22:58;;;;;;;127.90;58.70;;;;;;;1.43;84.19;100852.78;229035;1192;139789;-66
2021/12/14 06:28:02;;;;;;;130.90;59.60;;;;;;;1.42;83.89;100847.91;230472;1193;139521;-69
2021/12/14 06:33:08;;;;;;;129.60;58.90;;;;;;;1.35;83.59;100850.89;230816;1193;139921;-68
2021/12/14 06:38:33;;;;;;;131.50;52.40;;;;;;;1.34;83.79;100857.64;229095;1193;139439;-65
2021/12/14 06:43:48;;;;;;;141.50;61.80;;;;;;;1.41;83.58;100857.55;229975;1192;139694;-66
2021/12/14 06:49:03;;;;;;;131.90;58.10;;;;;;;1.42;83.60;100862.16;229753;1192;139360;-67
2021/12/14 06:54:12;;;;;;;141.30;62.20;;;;;;;1.42;83.82;100859.02;229577;1192;139237;-66
2021/12/14 06:59:20;;;;;;;120.10;50.60;;;;;;;1.44;83.64;100848.50;229071;1192;139934;-67
2021/12/14 07:04:34;;;;;;;143.20;64.90;;;;;;;1.50;83.66;100852.77;228645;1193;140278;-66
2021/12/14 07:09:51;;;;;;;134.40;57.50;;;;;;;1.55;84.19;100857.35;228675;1192;140002;-68
2021/12/14 07:15:10;;;;;;;134.10;59.30;;;;;;;1.59;84.03;100865.38;228461;1193;139416;-68
2021/12/14 07:20:44;;;;;;;125.50;49.70;;;;;;;1.64;83.78;100860.88;228345;1193;139306;-69
2021/12/14 07:25:55;;;;;;;137.20;63.20;;;;;;;1.71;83.90;100856.64;228971;1192;140557;-67
2021/12/14 07:31:10;;;;;;;149.40;67.90;;;;;;;1.81;84.02;100860.98;229150;1192;140191;-67
2021/12/14 07:36:23;;;;;;;148.40;63.40;;;;;;;1.88;83.75;100861.51;229369;1192;138946;-68
2021/12/14 07:41:39;;;;;;;129.70;52.30;;;;;;;1.95;83.69;100860.77;229067;1192;138757;-68
2021/12/14 07:46:54;;;;;;;125.30;57.40;;;;;;;2.06;83.45;100860.76;229758;1193;139774;-68
2021/12/14 07:52:09;;;;;;;122.10;54.20;;;;;;;2.16;83.44;100860.52;229309;1192;141470;-68
2021/12/14 07:57:19;;;;;;;130.40;57.50;;;;;;;2.21;83.49;100856.06;228707;1192;139102;-67
2021/12/14 08:02:34;;;;;;;123.60;49.50;;;;;;;2.24;83.01;100846.76;230375;1192;138926;-68
2021/12/14 08:07:41;;;;;;;124.60;56.20;;;;;;;2.36;83.22;100846.52;230596;1192;140220;-68
2021/12/14 08:13:03;;;;;;;118.20;55.30;;;;;;;2.53;83.14;100849.70;230061;1192;140710;-70
2021/12/14 08:18:11;;;;;;;121.70;55.30;;;;;;;2.69;83.15;100846.78;231111;1192;139984;-67
2021/12/14 08:23:24;;;;;;;118.20;49.10;;;;;;;2.77;82.81;100847.59;230946;1192;139258;-70
2021/12/14 08:28:27;;;;;;;118.50;49.70;;;;;;;2.85;82.70;100844.77;230798;1192;141858;-71
2021/12/14 08:33:52;;;;;;;111.60;51.90;;;;;;;2.93;82.54;100857.80;230696;1192;139868;-72
2021/12/14 08:39:20;;;;;;;126.60;55.00;;;;;;;2.99;82.54;100859.73;230181;1192;138898;-65
2021/12/14 08:44:38;;;;;;;116.40;45.10;;;;;;;3.02;82.51;100867.26;228906;1184;151962;-65
2021/12/14 08:49:43;;;;;;;114.80;52.80;;;;;;;3.09;82.37;100864.33;229643;1192;139975;-66
2021/12/14 08:54:46;;;;;;;125.40;54.70;;;;;;;3.08;82.12;100855.28;229571;1193;142605;-66
2021/12/14 08:59:56;;;;;;;109.00;51.60;;;;;;;3.00;82.36;100858.19;228989;1192;142247;-65
2021/12/14 09:05:15;;;;;;;110.50;47.30;;;;;;;3.00;82.19;100852.89;228698;1177;141380;-66
2021/12/14 09:10:21;;;;;;;119.70;53.20;;;;;;;3.06;82.28;100852.19;229373;1192;139551;-66
2021/12/14 09:15:28;;;;;;;115.80;51.50;;;;;;;3.07;82.23;100848.45;228898;1192;140758;-68
2021/12/14 09:20:46;;;;;;;131.10;52.80;;;;;;;3.06;82.34;100843.02;228451;1192;139997;-68
2021/12/14 09:25:50;;;;;;;109.50;48.90;;;;;;;3.07;82.23;100846.24;228699;1193;140514;-70
2021/12/14 09:30:59;;;;;;;105.30;50.60;;;;;;;3.12;82.54;100844.78;228555;1193;139511;-70
2021/12/14 09:36:11;;;;;;;95.50;43.80;;;;;;;3.17;82.47;100833.24;228771;1193;140397;-68
2021/12/14 09:41:21;;;;;;;96.80;42.20;;;;;;;3.18;82.55;100829.27;229437;1192;140785;-69
2021/12/14 09:46:26;;;;;;;88.50;40.00;;;;;;;3.20;82.41;100827.10;228151;1193;139885;-68
2021/12/14 09:51:58;;;;;;;101.70;45.00;;;;;;;3.25;82.32;100818.16;228310;1193;141465;-67
2021/12/14 10:00:48;;;;;;;;;;;;;;;;;;;;;
2021/12/14 10:06:04;;;;;;;96.90;41.10;;;;;;;3.38;82.50;100788.27;206506;1328;141004;-71
2021/12/14 10:11:24;;;;;;;95.90;44.40;;;;;;;3.47;81.98;100788.05;207809;1321;316510;-69
2021/12/14 10:16:29;;;;;;;94.30;43.00;;;;;;;3.56;82.16;100791.13;207934;1322;141116;-72
2021/12/14 10:21:46;;;;;;;88.30;42.00;;;;;;;3.63;82.14;100786.54;209331;1318;140550;-70
2021/12/14 10:27:22;;;;;;;90.40;41.90;;;;;;;3.68;82.22;100782.59;208897;1320;140030;-70
2021/12/14 10:32:30;;;;;;;76.90;31.90;;;;;;;3.72;82.17;100777.91;208848;1319;140815;-72
2021/12/14 10:38:00;;;;;;;83.20;38.60;;;;;;;3.85;81.97;100783.95;208836;1316;139956;-73
2021/12/14 10:43:15;;;;;;;60.40;30.90;;;;;;;3.96;82.26;100777.66;207443;1319;141730;-73
2021/12/14 10:48:35;;;;;;;70.00;34.60;;;;;;;4.00;82.28;100775.48;207015;1319;139590;-68
2021/12/14 10:53:43;;;;;;;74.80;33.70;;;;;;;4.03;82.35;100772.05;207660;1323;140626;-68
2021/12/14 10:59:12;;;;;;;74.80;35.40;;;;;;;4.12;82.16;100767.34;207562;1319;140667;-69
2021/12/14 11:04:34;;;;;;;74.50;35.70;;;;;;;4.15;82.33;100769.02;206841;1319;139025;-69
2021/12/14 11:10:31;;;;;;;74.60;34.20;;;;;;;4.14;82.45;100768.48;207424;1319;140790;-68
2021/12/14 11:15:54;;;;;;;60.00;29.50;;;;;;;4.13;82.30;100768.95;207194;1322;140952;-69
2021/12/14 11:21:12;;;;;;;69.30;32.20;;;;;;;4.15;82.21;100767.16;208097;1319;140329;-72
2021/12/14 11:26:34;;;;;;;76.60;31.30;;;;;;;4.17;82.35;100759.38;207498;1319;140455;-70
2021/12/14 11:32:02;;;;;;;74.40;33.50;;;;;;;4.14;81.98;100761.63;207669;1319;140008;-68
2021/12/14 11:37:15;;;;;;;65.00;33.30;;;;;;;4.14;82.24;100757.08;207455;1319;139717;-70
2021/12/14 11:42:19;;;;;;;59.60;32.00;;;;;;;4.10;82.39;100756.61;207616;1319;140085;-68
2021/12/14 11:47:43;;;;;;;70.70;34.90;;;;;;;4.05;82.32;100756.19;207162;1319;140104;-69
2021/12/14 11:53:14;;;;;;;60.70;26.20;;;;;;;4.04;82.23;100755.07;207944;1319;140181;-69
2021/12/14 11:58:30;;;;;;;74.40;34.40;;;;;;;4.07;82.38;100749.23;207942;1313;141479;-68
2021/12/14 12:03:43;;;;;;;80.60;32.90;;;;;;;4.04;82.31;100746.16;207953;1316;140518;-69
2021/12/14 12:14:17;;;;;;;69.90;31.90;;;;;;;3.97;82.34;100739.05;208501;1315;140806;-71
2021/12/14 12:19:25;;;;;;;68.90;36.50;;;;;;;4.03;82.42;100736.27;208930;1315;139475;-69
2021/12/14 12:24:52;;;;;;;70.50;35.10;;;;;;;4.04;82.23;100735.12;209697;1315;140529;-72
2021/12/14 12:30:39;;;;;;;78.30;35.30;;;;;;;3.95;82.10;100730.92;209834;1316;141215;-73
2021/12/14 12:35:51;;;;;;;71.30;33.80;;;;;;;3.88;82.26;100721.08;210020;1315;141072;-74
2021/12/14 12:41:05;;;;;;;75.40;35.80;;;;;;;3.92;82.33;100713.04;207714;1315;141059;-72
2021/12/14 12:46:39;;;;;;;70.80;36.20;;;;;;;3.96;82.58;100709.37;208472;1316;140443;-72
2021/12/14 12:52:08;;;;;;;75.10;35.80;;;;;;;3.98;82.57;100707.10;207722;1315;139205;-73
2021/12/14 12:57:57;;;;;;;69.50;31.80;;;;;;;3.96;82.34;100701.80;209428;1313;140753;-70
2021/12/14 13:03:17;;;;;;;74.30;34.50;;;;;;;3.96;82.42;100696.42;207845;1316;140687;-69
2021/12/14 13:08:22;;;;;;;67.10;32.60;;;;;;;3.91;82.38;100699.77;208388;1316;140138;-70
2021/12/14 13:13:41;;;;;;;73.50;34.90;;;;;;;3.84;82.41;100701.60;207858;1315;138969;-70
2021/12/14 13:18:56;;;;;;;58.70;27.30;;;;;;;3.76;82.38;100702.29;208218;1316;141268;-69
2021/12/14 13:24:16;;;;;;;86.30;40.50;;;;;;;3.71;82.43;100709.98;207404;1315;139837;-69
2021/12/14 13:29:30;;;;;;;59.50;32.80;;;;;;;3.68;82.45;100717.40;208433;1314;139455;-72
2021/12/14 13:34:52;;;;;;;63.20;34.90;;;;;;;3.60;82.47;100716.55;207745;1315;138834;-69
2021/12/14 13:39:58;;;;;;;62.80;33.10;;;;;;;3.52;82.59;100722.98;208062;1315;141025;-67
2021/12/14 13:45:07;;;;;;;55.40;27.30;;;;;;;3.52;82.71;100720.52;207624;1315;141870;-68
2021/12/14 13:50:18;;;;;;;68.90;31.60;;;;;;;3.52;82.62;100722.16;207904;1316;140757;-67
2021/12/14 13:55:30;;;;;;;58.00;32.20;;;;;;;3.48;82.85;100723.44;208406;1316;141366;-68
2021/12/14 14:01:07;;;;;;;51.50;27.50;;;;;;;3.47;82.72;100725.45;208406;1315;139933;-68
2021/12/14 14:06:17;;;;;;;59.20;30.60;;;;;;;3.48;82.69;100730.13;208505;1315;140038;-68
2021/12/14 14:11:44;;;;;;;57.20;27.70;;;;;;;3.48;82.69;100733.48;208711;1316;139179;-67
2021/12/14 14:16:55;;;;;;;51.90;29.90;;;;;;;3.43;82.86;100734.83;209232;1315;140342;-72
2021/12/14 14:22:05;;;;;;;48.90;25.00;;;;;;;3.38;82.69;100726.71;208315;1315;140258;-67
2021/12/14 14:27:49;;;;;;;53.40;30.10;;;;;;;3.42;82.66;100723.23;209291;1315;139771;-70
2021/12/14 14:33:30;;;;;;;49.70;25.40;;;;;;;3.35;82.63;100724.98;208514;1315;140452;-70
2021/12/14 14:39:01;;;;;;;45.40;25.70;;;;;;;3.32;82.68;100723.73;208613;1316;140536;-74
2021/12/14 14:44:11;;;;;;;49.80;27.70;;;;;;;3.34;82.62;100725.30;209528;1315;140759;-72
2021/12/14 14:50:10;;;;;;;54.80;28.40;;;;;;;3.39;82.78;100731.23;208033;1315;140079;-70
2021/12/14 14:56:07;;;;;;;43.20;25.80;;;;;;;3.38;82.70;100735.62;208136;1316;140152;-69
2021/12/14 15:01:23;;;;;;;43.90;23.00;;;;;;;3.31;82.75;100733.55;208130;1315;139511;-72
2021/12/14 15:06:34;;;;;;;50.60;26.90;;;;;;;3.34;82.86;100736.26;208021;1315;140403;-70
2021/12/14 15:11:52;;;;;;;45.60;26.80;;;;;;;3.31;82.92;100737.41;208534;1315;141380;-73
2021/12/14 15:17:16;;;;;;;43.80;25.00;;;;;;;3.29;82.85;100740.30;208247;1316;139957;-69
2021/12/14 15:22:32;;;;;;;45.20;28.70;;;;;;;3.28;82.88;100742.52;207748;1313;141959;-68
2021/12/14 15:27:50;;;;;;;57.00;30.30;;;;;;;3.26;82.95;100745.30;208628;1315;139631;-71
2021/12/14 15:33:03;;;;;;;54.40;28.70;;;;;;;3.24;83.13;100746.29;207572;1316;139042;-67
2021/12/14 15:38:12;;;;;;;49.90;24.60;;;;;;;3.18;82.96;100749.16;208781;1316;140623;-68
2021/12/14 15:43:42;;;;;;;49.80;27.00;;;;;;;3.21;83.09;100743.71;207833;1316;140477;-73
2021/12/14 15:49:10;;;;;;;48.40;29.10;;;;;;;3.24;83.37;100749.35;208279;1316;141207;-72
2021/12/14 15:54:49;;;;;;;46.10;25.10;;;;;;;3.23;83.13;100749.67;208177;1315;140403;-69
2021/12/14 16:00:09;;;;;;;50.40;27.20;;;;;;;3.18;83.09;100746.90;208688;1315;141012;-71
2021/12/14 16:05:17;;;;;;;47.00;25.90;;;;;;;3.19;83.19;100742.55;208166;1315;140047;-70
2021/12/14 16:10:28;;;;;;;49.50;27.50;;;;;;;3.17;83.23;100740.14;207697;1316;141203;-71
2021/12/14 16:15:34;;;;;;;59.00;28.80;;;;;;;3.11;83.44;100743.61;208991;1316;142366;-68
2021/12/14 16:20:50;;;;;;;53.90;25.10;;;;;;;3.11;83.20;100743.98;208898;1315;140397;-70
2021/12/14 16:25:58;;;;;;;56.60;28.70;;;;;;;3.14;83.32;100743.13;209514;1316;141816;-70
2021/12/14 16:31:08;;;;;;;53.40;27.00;;;;;;;3.09;83.19;100738.90;209660;1316;140405;-74
2021/12/14 16:36:16;;;;;;;58.90;29.70;;;;;;;3.01;83.15;100740.88;210075;1316;139496;-72
2021/12/14 16:41:44;;;;;;;53.00;26.80;;;;;;;2.99;82.99;100738.67;209473;1315;141172;-75
2021/12/14 16:47:04;;;;;;;55.80;32.10;;;;;;;3.00;83.19;100735.21;209530;1316;140176;-71
2021/12/14 16:52:31;;;;;;;55.90;28.90;;;;;;;3.02;83.35;100729.52;207386;1316;139792;-73
2021/12/14 16:57:39;;;;;;;59.50;30.40;;;;;;;3.01;83.44;100737.20;208963;1315;139022;-69
2021/12/14 17:02:47;;;;;;;63.10;29.50;;;;;;;3.06;83.60;100743.09;207683;1315;139616;-72
2021/12/14 17:08:01;;;;;;;56.10;31.00;;;;;;;3.12;83.40;100751.75;208265;1315;141249;-72
2021/12/14 17:13:14;;;;;;;61.90;31.40;;;;;;;3.13;83.67;100763.73;207297;1316;139737;-69
2021/12/14 17:18:23;;;;;;;65.90;31.10;;;;;;;3.10;83.45;100764.92;207991;1316;139325;-68
2021/12/14 17:23:35;;;;;;;64.10;26.40;;;;;;;3.06;83.56;100765.31;207738;1315;140447;-68
2021/12/14 17:28:52;;;;;;;60.60;32.60;;;;;;;3.11;83.89;100762.52;207349;1316;140159;-72
2021/12/14 17:34:03;;;;;;;68.30;31.40;;;;;;;3.12;83.70;100760.70;207902;1315;139034;-70
2021/12/14 17:39:48;;;;;;;59.40;27.60;;;;;;;3.13;83.96;100751.10;207425;1311;139900;-67
2021/12/14 17:44:58;;;;;;;55.90;26.70;;;;;;;3.18;83.78;100746.53;207839;1315;141651;-73
2021/12/14 17:50:15;;;;;;;57.20;31.90;;;;;;;3.20;83.94;100743.31;207526;1315;141846;-70
2021/12/14 17:55:34;;;;;;;59.50;26.80;;;;;;;3.18;83.65;100755.81;209321;1315;141116;-73
2021/12/14 18:00:51;;;;;;;61.10;29.70;;;;;;;3.19;83.84;100766.02;207516;1315;143971;-74
2021/12/14 18:05:59;;;;;;;60.60;30.40;;;;;;;3.25;84.09;100767.86;207877;1315;140985;-76
2021/12/14 18:11:18;;;;;;;64.10;31.50;;;;;;;3.24;83.97;100767.80;206898;1315;1097365;-73
2021/12/14 18:16:37;;;;;;;57.10;27.60;;;;;;;3.22;84.06;100777.50;208589;1316;140665;-74
2021/12/14 18:22:33;;;;;;;63.80;32.20;;;;;;;3.24;83.76;100777.02;208295;1316;140322;-77
2021/12/14 18:27:40;;;;;;;65.60;35.20;;;;;;;3.23;84.06;100774.05;208276;1317;140612;-78
2021/12/14 18:32:52;;;;;;;70.10;32.80;;;;;;;3.18;83.81;100772.36;208364;1315;140937;-77
2021/12/14 18:38:05;;;;;;;56.80;29.80;;;;;;;3.17;83.85;100764.70;208680;1316;141548;-80
2021/12/14 18:43:29;;;;;;;59.50;30.50;;;;;;;3.17;83.95;100770.66;208902;1315;140620;-75
2021/12/14 18:54:30;;;;;;;60.70;29.70;;;;;;;3.05;83.79;100796.53;208311;1316;141281;-76
2021/12/14 18:59:50;;;;;;;68.70;35.20;;;;;;;3.11;84.00;100796.08;208719;1315;140107;-73
2021/12/14 19:05:13;;;;;;;61.70;33.40;;;;;;;3.19;84.36;100792.95;208152;1315;141225;-74
2021/12/14 19:10:28;;;;;;;65.30;31.30;;;;;;;3.22;84.24;100795.29;207805;1315;139155;-76
2021/12/14 19:15:38;;;;;;;59.30;29.10;;;;;;;3.23;84.23;100797.08;207350;1316;140830;-75
2021/12/14 19:21:01;;;;;;;79.60;34.30;;;;;;;3.25;83.95;100800.08;207335;1316;140613;-78
2021/12/14 19:26:09;;;;;;;64.40;32.80;;;;;;;3.18;84.07;100806.11;208300;1312;141173;-74
2021/12/14 19:31:18;;;;;;;68.00;29.70;;;;;;;3.16;84.23;100803.43;207075;1316;139419;-73
2021/12/14 19:36:23;;;;;;;;;;;;;;;3.18;83.85;100811.80;207392;1316;140277;-77
2021/12/14 19:41:36;;;;;;;52.90;30.30;;;;;;;3.12;84.28;100815.46;208587;1315;127206;-74
2021/12/14 19:47:18;;;;;;;59.50;29.90;;;;;;;3.12;84.72;100826.38;208678;1316;139522;-76
2021/12/14 19:52:26;;;;;;;63.40;30.60;;;;;;;3.22;84.61;100825.72;207650;1316;141422;-74
2021/12/14 19:57:36;;;;;;;71.30;35.70;;;;;;;3.26;84.45;100820.70;208462;1315;144367;-71
2021/12/14 20:02:44;;;;;;;67.70;35.30;;;;;;;3.28;84.78;100813.82;208187;1316;164221;-72
2021/12/14 20:07:49;;;;;;;60.90;26.50;;;;;;;3.35;84.78;100807.38;208523;1315;142489;-70
2021/12/14 20:13:05;;;;;;;70.00;33.60;;;;;;;3.40;84.56;100819.89;208002;1316;141042;-71
2021/12/14 20:18:20;;;;;;;63.20;33.40;;;;;;;3.37;84.56;100816.79;209479;1314;141522;-72
2021/12/14 20:23:30;;;;;;;63.70;31.30;;;;;;;3.36;84.44;100819.84;207893;1316;142474;-71
2021/12/14 20:28:40;;;;;;;64.50;32.80;;;;;;;3.40;84.40;100828.46;208764;1316;142167;-71
2021/12/14 20:33:49;;;;;;;66.60;32.20;;;;;;;3.42;84.46;100830.23;209561;1316;140149;-78
2021/12/14 20:39:07;;;;;;;57.40;30.10;;;;;;;3.42;84.49;100835.98;209339;1315;141628;-71
2021/12/14 20:44:24;;;;;;;60.60;34.30;;;;;;;3.49;84.22;100850.07;208915;1316;141374;-69
2021/12/14 20:49:34;;;;;;;57.00;33.50;;;;;;;3.51;84.23;100849.25;208821;1316;141278;-73
2021/12/14 20:54:56;;;;;;;65.40;31.40;;;;;;;3.47;84.34;100836.25;209428;1316;141730;-75
2021/12/14 21:00:21;;;;;;;62.90;30.70;;;;;;;3.46;84.20;100835.39;208612;1315;139529;-73
2021/12/14 21:05:30;;;;;;;58.60;32.00;;;;;;;3.44;84.16;100834.59;208166;1316;140281;-74
2021/12/14 21:10:54;;;;;;;;;;;;;;;3.40;84.27;100840.25;208125;1316;141398;-73
2021/12/14 21:16:01;;;;;;;70.60;31.80;;;;;;;3.35;84.27;100832.15;208901;1316;125513;-76
2021/12/14 21:21:09;;;;;;;61.80;30.50;;;;;;;3.38;84.32;100826.04;208752;1313;141083;-72
2021/12/14 21:26:20;;;;;;;66.60;35.00;;;;;;;3.43;84.39;100824.80;207859;1316;141576;-76
2021/12/14 21:31:26;;;;;;;71.90;39.20;;;;;;;3.44;84.45;100836.14;207713;1316;141848;-71
2021/12/14 21:36:32;;;;;;;62.50;32.80;;;;;;;3.49;84.72;100838.13;208156;1316;139984;-72
2021/12/14 21:41:49;;;;;;;67.10;35.20;;;;;;;3.57;84.93;100846.04;208545;1314;141818;-73
2021/12/14 21:46:59;;;;;;;81.00;38.40;;;;;;;3.63;84.87;100848.86;207826;1315;139391;-77
2021/12/14 21:52:07;;;;;;;70.90;34.80;;;;;;;3.62;84.62;100855.38;208194;1315;140584;-74
2021/12/14 21:57:31;;;;;;;65.30;34.20;;;;;;;3.61;84.68;100854.35;208335;1316;140977;-73
2021/12/14 22:02:38;;;;;;;64.90;35.20;;;;;;;3.69;85.11;100850.00;207536;1315;141392;-78
2021/12/14 22:07:48;;;;;;;72.20;34.80;;;;;;;3.77;85.19;100851.63;208508;1316;140314;-77
2021/12/14 22:12:52;;;;;;;71.30;38.40;;;;;;;3.83;85.09;100850.67;208911;1316;139406;-70
2021/12/14 22:18:01;;;;;;;77.20;35.90;;;;;;;3.82;84.67;100854.99;208357;1316;141269;-76
2021/12/14 22:23:06;;;;;;;70.40;35.90;;;;;;;3.81;84.95;100860.69;208122;1316;142955;-70
2021/12/14 22:28:13;;;;;;;73.50;39.80;;;;;;;3.84;84.99;100859.33;207686;1316;141410;-78
2021/12/14 22:33:19;;;;;;;77.90;38.30;;;;;;;3.84;84.96;100867.92;207904;1316;141244;-74
2021/12/14 22:38:23;;;;;;;78.10;38.00;;;;;;;3.84;85.09;100860.73;208905;1316;142564;-77
2021/12/14 22:44:21;;;;;;;79.10;39.30;;;;;;;3.91;85.21;100856.30;208949;1316;140702;-78
2021/12/14 22:49:19;;;;;;;77.00;37.50;;;;;;;3.95;84.88;100851.13;209445;1316;141828;-79
2021/12/14 22:54:25;;;;;;;77.50;40.40;;;;;;;3.94;84.78;100854.35;209095;1316;142289;-75
2021/12/14 22:59:28;;;;;;;64.90;34.30;;;;;;;3.91;84.53;100860.15;208736;1316;140798;-72
2021/12/14 23:04:33;;;;;;;80.00;38.30;;;;;;;3.90;84.97;100864.18;209267;1316;141071;-76
2021/12/14 23:09:41;;;;;;;68.80;36.30;;;;;;;3.94;84.64;100868.63;208475;1316;141200;-77
2021/12/14 23:14:51;;;;;;;64.80;34.00;;;;;;;4.00;84.83;100867.59;208047;1316;141626;-74
2021/12/14 23:20:00;;;;;;;77.70;37.40;;;;;;;4.01;84.64;100860.77;209098;1316;140620;-71
2021/12/14 23:25:12;;;;;;;73.70;40.10;;;;;;;3.99;84.79;100863.17;208280;1315;140049;-75
2021/12/14 23:30:24;;;;;;;63.00;34.80;;;;;;;4.00;84.68;100867.42;208473;1316;142068;-71
2021/12/14 23:35:31;;;;;;;84.10;39.50;;;;;;;4.01;84.70;100867.70;207275;1316;141792;-72
2021/12/14 23:40:40;;;;;;;81.90;39.20;;;;;;;4.00;84.89;100858.85;208185;1316;141449;-74
2021/12/14 23:45:58;;;;;;;79.90;40.40;;;;;;;4.02;84.87;100854.40;207829;1316;141773;-75
2021/12/14 23:51:04;;;;;;;71.40;44.90;;;;;;;4.03;84.90;100847.18;208449;1316;140409;-77
2021/12/14 23:56:10;;;;;;;73.50;39.90;;;;;;;4.06;85.05;100849.36;208376;1316;140364;-77
